sensor_id;sensor_type;location;lat;lon;timestamp;P1;durP1;ratioP1;P2;durP2;ratioP2
179;SDS011;78;48.788;9.010;2022-11-20T00:01:31;28.60;;;10.03;;
179;SDS011;78;48.788;9.010;2022-11-20T00:03:57;29.53;;;10.00;;
179;SDS011;78;48.788;9.010;2022-11-20T00:06:24;26.80;;;9.70;;
179;SDS011;78;48.788;9.010;2022-11-20T00:08:51;28.20;;;10.47;;
179;SDS011;78;48.788;9.010;2022-11-20T00:11:20;28.80;;;9.40;;
179;SDS011;78;48.788;9.010;2022-11-20T00:13:48;27.70;;;10.07;;
179;SDS011;78;48.788;9.010;2022-11-20T00:16:15;27.53;;;10.50;;
179;SDS011;78;48.788;9.010;2022-11-20T00:18:41;28.03;;;10.23;;
179;SDS011;78;48.788;9.010;2022-11-20T00:21:12;31.70;;;10.37;;
179;SDS011;78;48.788;9.010;2022-11-20T00:23:39;27.60;;;10.70;;
179;SDS011;78;48.788;9.010;2022-11-20T00:26:06;31.00;;;11.20;;
179;SDS011;78;48.788;9.010;2022-11-20T00:28:32;29.20;;;10.90;;
179;SDS011;78;48.788;9.010;2022-11-20T00:31:05;23.63;;;8.10;;
179;SDS011;78;48.788;9.010;2022-11-20T00:33:32;25.50;;;8.17;;
179;SDS011;78;48.788;9.010;2022-11-20T00:36:02;21.47;;;6.87;;
179;SDS011;78;48.788;9.010;2022-11-20T00:38:28;21.30;;;6.80;;
179;SDS011;78;48.788;9.010;2022-11-20T00:40:58;22.30;;;6.50;;
179;SDS011;78;48.788;9.010;2022-11-20T00:43:24;18.70;;;5.30;;
179;SDS011;78;48.788;9.010;2022-11-20T00:45:50;19.70;;;6.10;;
179;SDS011;78;48.788;9.010;2022-11-20T00:48:16;21.73;;;5.87;;
179;SDS011;78;48.788;9.010;2022-11-20T00:50:42;20.87;;;6.30;;
179;SDS011;78;48.788;9.010;2022-11-20T00:53:08;21.73;;;6.23;;
179;SDS011;78;48.788;9.010;2022-11-20T00:55:34;20.70;;;6.40;;
179;SDS011;78;48.788;9.010;2022-11-20T00:58:00;19.73;;;6.20;;
179;SDS011;78;48.788;9.010;2022-11-20T01:00:26;22.90;;;6.00;;
179;SDS011;78;48.788;9.010;2022-11-20T01:02:52;20.90;;;5.90;;
179;SDS011;78;48.788;9.010;2022-11-20T01:05:17;20.90;;;6.00;;
179;SDS011;78;48.788;9.010;2022-11-20T01:07:43;22.27;;;5.70;;
179;SDS011;78;48.788;9.010;2022-11-20T01:10:09;23.50;;;5.47;;
179;SDS011;78;48.788;9.010;2022-11-20T01:12:35;19.90;;;5.40;;
179;SDS011;78;48.788;9.010;2022-11-20T01:15:01;19.90;;;4.90;;
179;SDS011;78;48.788;9.010;2022-11-20T01:17:27;20.50;;;5.20;;
179;SDS011;78;48.788;9.010;2022-11-20T01:19:53;22.37;;;5.20;;
179;SDS011;78;48.788;9.010;2022-11-20T01:22:19;19.67;;;4.80;;
179;SDS011;78;48.788;9.010;2022-11-20T01:24:45;17.37;;;4.47;;
179;SDS011;78;48.788;9.010;2022-11-20T01:27:11;18.37;;;4.03;;
179;SDS011;78;48.788;9.010;2022-11-20T01:29:37;16.23;;;3.83;;
179;SDS011;78;48.788;9.010;2022-11-20T01:32:03;17.63;;;4.13;;
179;SDS011;78;48.788;9.010;2022-11-20T01:34:29;20.87;;;4.37;;
179;SDS011;78;48.788;9.010;2022-11-20T01:36:55;16.63;;;3.70;;
179;SDS011;78;48.788;9.010;2022-11-20T01:39:22;17.93;;;4.00;;
179;SDS011;78;48.788;9.010;2022-11-20T01:41:49;17.20;;;4.40;;
179;SDS011;78;48.788;9.010;2022-11-20T01:47:09;19.03;;;4.40;;
179;SDS011;78;48.788;9.010;2022-11-20T01:49:39;18.57;;;4.67;;
179;SDS011;78;48.788;9.010;2022-11-20T01:52:16;23.20;;;5.30;;
179;SDS011;78;48.788;9.010;2022-11-20T01:54:51;19.90;;;4.90;;
179;SDS011;78;48.788;9.010;2022-11-20T01:57:18;21.50;;;4.40;;
179;SDS011;78;48.788;9.010;2022-11-20T01:59:47;17.87;;;4.63;;
179;SDS011;78;48.788;9.010;2022-11-20T02:02:17;19.50;;;4.90;;
179;SDS011;78;48.788;9.010;2022-11-20T02:04:43;18.23;;;4.60;;
179;SDS011;78;48.788;9.010;2022-11-20T02:07:10;19.10;;;4.80;;
179;SDS011;78;48.788;9.010;2022-11-20T02:09:36;20.50;;;5.20;;
179;SDS011;78;48.788;9.010;2022-11-20T02:12:03;18.17;;;4.80;;
179;SDS011;78;48.788;9.010;2022-11-20T02:14:29;18.87;;;4.90;;
179;SDS011;78;48.788;9.010;2022-11-20T02:16:56;17.87;;;4.90;;
179;SDS011;78;48.788;9.010;2022-11-20T02:21:55;19.73;;;5.00;;
179;SDS011;78;48.788;9.010;2022-11-20T02:24:22;18.13;;;4.77;;
179;SDS011;78;48.788;9.010;2022-11-20T02:26:50;20.10;;;5.27;;
179;SDS011;78;48.788;9.010;2022-11-20T02:29:18;18.57;;;5.13;;
179;SDS011;78;48.788;9.010;2022-11-20T02:31:45;18.03;;;4.60;;
179;SDS011;78;48.788;9.010;2022-11-20T02:34:11;18.90;;;4.97;;
179;SDS011;78;48.788;9.010;2022-11-20T02:36:38;18.13;;;5.10;;
179;SDS011;78;48.788;9.010;2022-11-20T02:39:05;18.73;;;4.50;;
179;SDS011;78;48.788;9.010;2022-11-20T02:41:32;19.47;;;5.50;;
179;SDS011;78;48.788;9.010;2022-11-20T02:43:58;20.10;;;5.60;;
179;SDS011;78;48.788;9.010;2022-11-20T02:46:24;20.30;;;5.30;;
179;SDS011;78;48.788;9.010;2022-11-20T02:48:50;21.10;;;5.20;;
179;SDS011;78;48.788;9.010;2022-11-20T02:51:17;21.03;;;5.90;;
179;SDS011;78;48.788;9.010;2022-11-20T02:53:43;21.00;;;6.23;;
179;SDS011;78;48.788;9.010;2022-11-20T02:56:10;22.00;;;5.90;;
179;SDS011;78;48.788;9.010;2022-11-20T02:58:36;19.00;;;5.57;;
179;SDS011;78;48.788;9.010;2022-11-20T03:01:02;20.00;;;5.90;;
179;SDS011;78;48.788;9.010;2022-11-20T03:03:29;19.93;;;5.70;;
179;SDS011;78;48.788;9.010;2022-11-20T03:05:55;23.93;;;6.60;;
179;SDS011;78;48.788;9.010;2022-11-20T03:08:24;20.47;;;5.63;;
179;SDS011;78;48.788;9.010;2022-11-20T03:10:50;20.70;;;6.10;;
179;SDS011;78;48.788;9.010;2022-11-20T03:13:17;21.60;;;6.90;;
179;SDS011;78;48.788;9.010;2022-11-20T03:15:43;22.80;;;6.23;;
179;SDS011;78;48.788;9.010;2022-11-20T03:18:09;24.00;;;7.20;;
179;SDS011;78;48.788;9.010;2022-11-20T03:20:35;21.30;;;6.77;;
179;SDS011;78;48.788;9.010;2022-11-20T03:23:01;22.63;;;6.83;;
179;SDS011;78;48.788;9.010;2022-11-20T03:25:28;22.63;;;7.30;;
179;SDS011;78;48.788;9.010;2022-11-20T03:27:54;23.00;;;6.93;;
179;SDS011;78;48.788;9.010;2022-11-20T03:30:21;21.17;;;7.20;;
179;SDS011;78;48.788;9.010;2022-11-20T03:32:47;22.50;;;7.80;;
179;SDS011;78;48.788;9.010;2022-11-20T03:35:13;22.50;;;6.53;;
179;SDS011;78;48.788;9.010;2022-11-20T03:37:39;25.50;;;7.40;;
179;SDS011;78;48.788;9.010;2022-11-20T03:40:06;23.17;;;7.23;;
179;SDS011;78;48.788;9.010;2022-11-20T03:42:32;24.30;;;7.40;;
179;SDS011;78;48.788;9.010;2022-11-20T03:45:12;25.30;;;7.23;;
179;SDS011;78;48.788;9.010;2022-11-20T03:47:39;22.87;;;6.93;;
179;SDS011;78;48.788;9.010;2022-11-20T03:50:05;20.90;;;6.67;;
179;SDS011;78;48.788;9.010;2022-11-20T03:52:31;22.77;;;7.20;;
179;SDS011;78;48.788;9.010;2022-11-20T03:54:57;23.20;;;7.20;;
179;SDS011;78;48.788;9.010;2022-11-20T03:57:23;21.90;;;7.30;;
179;SDS011;78;48.788;9.010;2022-11-20T03:59:50;21.80;;;6.83;;
179;SDS011;78;48.788;9.010;2022-11-20T04:02:16;22.30;;;6.70;;
179;SDS011;78;48.788;9.010;2022-11-20T04:04:43;22.50;;;7.60;;
179;SDS011;78;48.788;9.010;2022-11-20T04:07:08;22.20;;;7.50;;
179;SDS011;78;48.788;9.010;2022-11-20T04:09:35;22.60;;;7.57;;
179;SDS011;78;48.788;9.010;2022-11-20T04:12:01;21.33;;;7.00;;
179;SDS011;78;48.788;9.010;2022-11-20T04:14:28;21.87;;;7.30;;
179;SDS011;78;48.788;9.010;2022-11-20T04:16:54;25.20;;;7.27;;
179;SDS011;78;48.788;9.010;2022-11-20T04:19:21;22.10;;;6.70;;
179;SDS011;78;48.788;9.010;2022-11-20T04:21:47;22.37;;;7.00;;
179;SDS011;78;48.788;9.010;2022-11-20T04:24:14;20.97;;;6.37;;
179;SDS011;78;48.788;9.010;2022-11-20T04:26:40;24.90;;;6.40;;
179;SDS011;78;48.788;9.010;2022-11-20T04:29:09;23.23;;;6.93;;
179;SDS011;78;48.788;9.010;2022-11-20T04:31:36;20.63;;;6.47;;
179;SDS011;78;48.788;9.010;2022-11-20T04:34:03;20.23;;;6.20;;
179;SDS011;78;48.788;9.010;2022-11-20T04:36:29;21.57;;;6.90;;
179;SDS011;78;48.788;9.010;2022-11-20T04:38:57;20.13;;;6.57;;
179;SDS011;78;48.788;9.010;2022-11-20T04:41:24;19.70;;;6.03;;
179;SDS011;78;48.788;9.010;2022-11-20T04:43:55;20.87;;;6.60;;
179;SDS011;78;48.788;9.010;2022-11-20T04:46:24;20.90;;;6.20;;
179;SDS011;78;48.788;9.010;2022-11-20T04:48:50;20.63;;;5.87;;
179;SDS011;78;48.788;9.010;2022-11-20T04:51:17;21.07;;;6.47;;
179;SDS011;78;48.788;9.010;2022-11-20T04:53:43;21.37;;;6.10;;
179;SDS011;78;48.788;9.010;2022-11-20T04:56:10;24.33;;;6.80;;
179;SDS011;78;48.788;9.010;2022-11-20T04:58:37;19.47;;;6.20;;
179;SDS011;78;48.788;9.010;2022-11-20T05:01:11;22.60;;;6.90;;
179;SDS011;78;48.788;9.010;2022-11-20T05:03:37;21.13;;;6.50;;
179;SDS011;78;48.788;9.010;2022-11-20T05:06:04;22.13;;;6.40;;
179;SDS011;78;48.788;9.010;2022-11-20T05:08:31;20.00;;;6.73;;
179;SDS011;78;48.788;9.010;2022-11-20T05:11:01;21.83;;;6.73;;
179;SDS011;78;48.788;9.010;2022-11-20T05:13:28;21.83;;;6.60;;
179;SDS011;78;48.788;9.010;2022-11-20T05:15:54;22.47;;;6.80;;
179;SDS011;78;48.788;9.010;2022-11-20T05:18:21;22.10;;;6.83;;
179;SDS011;78;48.788;9.010;2022-11-20T05:20:54;23.00;;;7.20;;
179;SDS011;78;48.788;9.010;2022-11-20T05:23:21;21.10;;;7.07;;
179;SDS011;78;48.788;9.010;2022-11-20T05:25:47;22.10;;;7.10;;
179;SDS011;78;48.788;9.010;2022-11-20T05:28:14;31.27;;;6.90;;
179;SDS011;78;48.788;9.010;2022-11-20T05:30:40;25.77;;;7.97;;
179;SDS011;78;48.788;9.010;2022-11-20T05:33:07;21.53;;;6.80;;
179;SDS011;78;48.788;9.010;2022-11-20T05:35:33;22.07;;;7.00;;
179;SDS011;78;48.788;9.010;2022-11-20T05:37:59;21.23;;;6.47;;
179;SDS011;78;48.788;9.010;2022-11-20T05:40:26;22.20;;;7.50;;
179;SDS011;78;48.788;9.010;2022-11-20T05:42:52;23.20;;;7.50;;
179;SDS011;78;48.788;9.010;2022-11-20T05:45:18;22.47;;;7.40;;
179;SDS011;78;48.788;9.010;2022-11-20T05:47:44;25.77;;;7.30;;
179;SDS011;78;48.788;9.010;2022-11-20T05:50:10;25.73;;;7.10;;
179;SDS011;78;48.788;9.010;2022-11-20T05:52:37;23.90;;;7.47;;
179;SDS011;78;48.788;9.010;2022-11-20T05:55:03;20.87;;;6.40;;
179;SDS011;78;48.788;9.010;2022-11-20T05:57:30;21.30;;;6.50;;
179;SDS011;78;48.788;9.010;2022-11-20T05:59:57;23.37;;;6.93;;
179;SDS011;78;48.788;9.010;2022-11-20T06:02:23;20.60;;;6.30;;
179;SDS011;78;48.788;9.010;2022-11-20T06:04:49;24.53;;;6.90;;
179;SDS011;78;48.788;9.010;2022-11-20T06:07:15;21.23;;;7.20;;
179;SDS011;78;48.788;9.010;2022-11-20T06:09:42;18.90;;;6.03;;
179;SDS011;78;48.788;9.010;2022-11-20T06:12:08;20.50;;;6.10;;
179;SDS011;78;48.788;9.010;2022-11-20T06:14:34;19.70;;;6.00;;
179;SDS011;78;48.788;9.010;2022-11-20T06:17:01;21.03;;;5.50;;
179;SDS011;78;48.788;9.010;2022-11-20T06:19:27;23.30;;;6.03;;
179;SDS011;78;48.788;9.010;2022-11-20T06:21:53;19.10;;;5.40;;
179;SDS011;78;48.788;9.010;2022-11-20T06:24:19;18.60;;;5.27;;
179;SDS011;78;48.788;9.010;2022-11-20T06:26:45;19.30;;;5.80;;
179;SDS011;78;48.788;9.010;2022-11-20T06:29:12;19.43;;;5.60;;
179;SDS011;78;48.788;9.010;2022-11-20T06:31:38;18.70;;;4.90;;
179;SDS011;78;48.788;9.010;2022-11-20T06:34:04;20.10;;;5.00;;
179;SDS011;78;48.788;9.010;2022-11-20T06:36:31;17.90;;;5.00;;
179;SDS011;78;48.788;9.010;2022-11-20T06:38:58;19.90;;;5.10;;
179;SDS011;78;48.788;9.010;2022-11-20T06:41:24;17.60;;;4.50;;
179;SDS011;78;48.788;9.010;2022-11-20T06:43:51;18.30;;;4.63;;
179;SDS011;78;48.788;9.010;2022-11-20T06:46:18;18.50;;;4.40;;
179;SDS011;78;48.788;9.010;2022-11-20T06:48:45;17.63;;;4.60;;
179;SDS011;78;48.788;9.010;2022-11-20T06:51:12;17.67;;;4.33;;
179;SDS011;78;48.788;9.010;2022-11-20T06:53:38;18.00;;;4.40;;
179;SDS011;78;48.788;9.010;2022-11-20T06:56:05;17.27;;;4.53;;
179;SDS011;78;48.788;9.010;2022-11-20T06:58:32;16.80;;;4.30;;
179;SDS011;78;48.788;9.010;2022-11-20T07:00:58;21.43;;;4.57;;
179;SDS011;78;48.788;9.010;2022-11-20T07:03:25;17.80;;;4.43;;
179;SDS011;78;48.788;9.010;2022-11-20T07:05:53;18.10;;;4.30;;
179;SDS011;78;48.788;9.010;2022-11-20T07:08:19;17.43;;;4.33;;
179;SDS011;78;48.788;9.010;2022-11-20T07:10:45;26.63;;;4.37;;
179;SDS011;78;48.788;9.010;2022-11-20T07:13:12;16.67;;;4.00;;
179;SDS011;78;48.788;9.010;2022-11-20T07:15:38;17.13;;;4.33;;
179;SDS011;78;48.788;9.010;2022-11-20T07:18:04;17.97;;;4.80;;
179;SDS011;78;48.788;9.010;2022-11-20T07:20:30;16.70;;;3.90;;
179;SDS011;78;48.788;9.010;2022-11-20T07:22:57;17.17;;;4.33;;
179;SDS011;78;48.788;9.010;2022-11-20T07:25:26;16.47;;;4.20;;
179;SDS011;78;48.788;9.010;2022-11-20T07:27:52;16.60;;;4.10;;
179;SDS011;78;48.788;9.010;2022-11-20T07:30:18;18.70;;;4.50;;
179;SDS011;78;48.788;9.010;2022-11-20T07:32:50;19.20;;;4.50;;
179;SDS011;78;48.788;9.010;2022-11-20T07:35:16;19.87;;;4.47;;
179;SDS011;78;48.788;9.010;2022-11-20T07:37:42;17.30;;;4.70;;
179;SDS011;78;48.788;9.010;2022-11-20T07:40:08;15.80;;;3.80;;
179;SDS011;78;48.788;9.010;2022-11-20T07:42:34;17.40;;;4.70;;
179;SDS011;78;48.788;9.010;2022-11-20T07:45:00;17.03;;;3.93;;
179;SDS011;78;48.788;9.010;2022-11-20T07:47:26;17.97;;;4.30;;
179;SDS011;78;48.788;9.010;2022-11-20T07:49:53;19.03;;;4.80;;
179;SDS011;78;48.788;9.010;2022-11-20T07:52:19;17.77;;;4.10;;
179;SDS011;78;48.788;9.010;2022-11-20T07:54:45;16.80;;;4.20;;
179;SDS011;78;48.788;9.010;2022-11-20T07:57:11;20.77;;;5.57;;
179;SDS011;78;48.788;9.010;2022-11-20T07:59:37;19.23;;;5.50;;
179;SDS011;78;48.788;9.010;2022-11-20T08:02:03;17.30;;;4.20;;
179;SDS011;78;48.788;9.010;2022-11-20T08:04:29;16.50;;;3.93;;
179;SDS011;78;48.788;9.010;2022-11-20T08:06:57;15.80;;;3.50;;
179;SDS011;78;48.788;9.010;2022-11-20T08:09:23;16.80;;;4.00;;
179;SDS011;78;48.788;9.010;2022-11-20T08:11:50;16.10;;;3.73;;
179;SDS011;78;48.788;9.010;2022-11-20T08:14:35;16.23;;;3.83;;
179;SDS011;78;48.788;9.010;2022-11-20T08:17:01;16.87;;;4.10;;
179;SDS011;78;48.788;9.010;2022-11-20T08:19:27;16.37;;;3.53;;
179;SDS011;78;48.788;9.010;2022-11-20T08:21:54;17.97;;;4.00;;
179;SDS011;78;48.788;9.010;2022-11-20T08:24:21;15.57;;;3.23;;
179;SDS011;78;48.788;9.010;2022-11-20T08:26:47;15.57;;;3.33;;
179;SDS011;78;48.788;9.010;2022-11-20T08:29:13;15.23;;;2.83;;
179;SDS011;78;48.788;9.010;2022-11-20T08:31:40;16.33;;;3.10;;
179;SDS011;78;48.788;9.010;2022-11-20T08:34:06;15.33;;;3.07;;
179;SDS011;78;48.788;9.010;2022-11-20T08:36:33;14.70;;;2.60;;
179;SDS011;78;48.788;9.010;2022-11-20T08:39:00;14.77;;;2.70;;
179;SDS011;78;48.788;9.010;2022-11-20T08:41:26;13.93;;;2.30;;
179;SDS011;78;48.788;9.010;2022-11-20T08:43:56;14.73;;;2.80;;
179;SDS011;78;48.788;9.010;2022-11-20T08:46:24;15.10;;;2.47;;
179;SDS011;78;48.788;9.010;2022-11-20T08:48:52;15.03;;;3.20;;
179;SDS011;78;48.788;9.010;2022-11-20T08:51:18;14.27;;;2.53;;
179;SDS011;78;48.788;9.010;2022-11-20T08:53:44;15.83;;;2.70;;
179;SDS011;78;48.788;9.010;2022-11-20T08:56:10;14.40;;;2.70;;
179;SDS011;78;48.788;9.010;2022-11-20T08:58:36;14.55;;;2.60;;
179;SDS011;78;48.788;9.010;2022-11-20T09:01:03;14.40;;;2.70;;
179;SDS011;78;48.788;9.010;2022-11-20T09:03:29;14.60;;;2.50;;
179;SDS011;78;48.788;9.010;2022-11-20T09:06:02;15.00;;;2.40;;
179;SDS011;78;48.788;9.010;2022-11-20T09:08:28;15.27;;;2.60;;
179;SDS011;78;48.788;9.010;2022-11-20T09:10:54;13.60;;;2.10;;
179;SDS011;78;48.788;9.010;2022-11-20T09:13:21;14.00;;;2.40;;
179;SDS011;78;48.788;9.010;2022-11-20T09:15:57;13.80;;;2.40;;
179;SDS011;78;48.788;9.010;2022-11-20T09:18:24;14.00;;;2.40;;
179;SDS011;78;48.788;9.010;2022-11-20T09:20:50;14.17;;;2.23;;
179;SDS011;78;48.788;9.010;2022-11-20T09:23:16;14.67;;;2.47;;
179;SDS011;78;48.788;9.010;2022-11-20T09:25:43;14.17;;;2.40;;
179;SDS011;78;48.788;9.010;2022-11-20T09:28:09;14.17;;;2.50;;
179;SDS011;78;48.788;9.010;2022-11-20T09:30:35;14.80;;;2.93;;
179;SDS011;78;48.788;9.010;2022-11-20T09:33:01;13.30;;;2.07;;
179;SDS011;78;48.788;9.010;2022-11-20T09:35:27;15.67;;;2.50;;
179;SDS011;78;48.788;9.010;2022-11-20T09:37:53;14.60;;;2.30;;
179;SDS011;78;48.788;9.010;2022-11-20T09:40:20;13.80;;;2.30;;
179;SDS011;78;48.788;9.010;2022-11-20T09:45:21;14.20;;;2.30;;
179;SDS011;78;48.788;9.010;2022-11-20T09:55:12;13.90;;;2.40;;
179;SDS011;78;48.788;9.010;2022-11-20T09:57:39;13.80;;;2.23;;
179;SDS011;78;48.788;9.010;2022-11-20T10:00:09;14.37;;;2.37;;
179;SDS011;78;48.788;9.010;2022-11-20T10:05:21;15.00;;;2.87;;
179;SDS011;78;48.788;9.010;2022-11-20T10:10:44;16.80;;;3.30;;
179;SDS011;78;48.788;9.010;2022-11-20T10:15:49;15.70;;;3.23;;
179;SDS011;78;48.788;9.010;2022-11-20T10:18:30;15.20;;;2.53;;
179;SDS011;78;48.788;9.010;2022-11-20T10:21:08;14.83;;;2.80;;
179;SDS011;78;48.788;9.010;2022-11-20T10:29:08;16.67;;;4.40;;
179;SDS011;78;48.788;9.010;2022-11-20T10:31:36;21.20;;;3.57;;
179;SDS011;78;48.788;9.010;2022-11-20T10:34:08;18.80;;;4.83;;
179;SDS011;78;48.788;9.010;2022-11-20T10:36:44;17.83;;;5.10;;
179;SDS011;78;48.788;9.010;2022-11-20T10:39:15;26.57;;;9.97;;
179;SDS011;78;48.788;9.010;2022-11-20T10:41:43;23.23;;;7.73;;
179;SDS011;78;48.788;9.010;2022-11-20T10:44:14;16.50;;;3.87;;
179;SDS011;78;48.788;9.010;2022-11-20T10:47:01;18.20;;;4.50;;
179;SDS011;78;48.788;9.010;2022-11-20T10:49:27;16.47;;;3.33;;
179;SDS011;78;48.788;9.010;2022-11-20T10:56:50;15.10;;;3.13;;
179;SDS011;78;48.788;9.010;2022-11-20T11:01:45;15.83;;;3.30;;
179;SDS011;78;48.788;9.010;2022-11-20T11:04:28;18.33;;;5.27;;
179;SDS011;78;48.788;9.010;2022-11-20T11:06:58;17.07;;;4.07;;
179;SDS011;78;48.788;9.010;2022-11-20T11:09:32;16.10;;;3.87;;
179;SDS011;78;48.788;9.010;2022-11-20T11:12:00;18.00;;;4.97;;
179;SDS011;78;48.788;9.010;2022-11-20T11:14:26;17.47;;;4.30;;
179;SDS011;78;48.788;9.010;2022-11-20T11:16:52;18.23;;;4.60;;
179;SDS011;78;48.788;9.010;2022-11-20T11:19:19;21.00;;;4.77;;
179;SDS011;78;48.788;9.010;2022-11-20T11:21:55;18.93;;;5.07;;
179;SDS011;78;48.788;9.010;2022-11-20T11:29:22;17.10;;;4.33;;
179;SDS011;78;48.788;9.010;2022-11-20T11:31:48;19.60;;;4.60;;
179;SDS011;78;48.788;9.010;2022-11-20T11:34:15;17.77;;;4.57;;
179;SDS011;78;48.788;9.010;2022-11-20T11:39:14;19.63;;;4.90;;
179;SDS011;78;48.788;9.010;2022-11-20T11:41:41;21.47;;;6.47;;
179;SDS011;78;48.788;9.010;2022-11-20T11:44:17;23.57;;;7.53;;
179;SDS011;78;48.788;9.010;2022-11-20T11:47:03;17.53;;;4.60;;
179;SDS011;78;48.788;9.010;2022-11-20T11:49:29;19.90;;;4.30;;
179;SDS011;78;48.788;9.010;2022-11-20T11:54:35;18.50;;;4.07;;
179;SDS011;78;48.788;9.010;2022-11-20T11:57:05;20.43;;;3.60;;
179;SDS011;78;48.788;9.010;2022-11-20T12:03:20;17.27;;;3.80;;
179;SDS011;78;48.788;9.010;2022-11-20T12:07:43;18.77;;;4.13;;
179;SDS011;78;48.788;9.010;2022-11-20T12:10:15;16.20;;;3.23;;
179;SDS011;78;48.788;9.010;2022-11-20T12:12:46;18.97;;;3.47;;
179;SDS011;78;48.788;9.010;2022-11-20T12:15:16;21.10;;;3.40;;
179;SDS011;78;48.788;9.010;2022-11-20T12:17:51;16.77;;;3.27;;
179;SDS011;78;48.788;9.010;2022-11-20T12:20:17;17.20;;;3.37;;
179;SDS011;78;48.788;9.010;2022-11-20T12:22:51;17.40;;;3.20;;
179;SDS011;78;48.788;9.010;2022-11-20T12:25:24;15.80;;;3.30;;
179;SDS011;78;48.788;9.010;2022-11-20T12:28:34;16.10;;;3.30;;
179;SDS011;78;48.788;9.010;2022-11-20T12:30:47;20.30;;;3.20;;
179;SDS011;78;48.788;9.010;2022-11-20T12:43:36;18.10;;;3.90;;
179;SDS011;78;48.788;9.010;2022-11-20T13:06:44;19.80;;;3.43;;
179;SDS011;78;48.788;9.010;2022-11-20T13:09:14;17.43;;;2.70;;
179;SDS011;78;48.788;9.010;2022-11-20T13:14:34;16.40;;;3.60;;
179;SDS011;78;48.788;9.010;2022-11-20T13:19:41;16.10;;;3.00;;
179;SDS011;78;48.788;9.010;2022-11-20T13:22:08;16.20;;;3.10;;
179;SDS011;78;48.788;9.010;2022-11-20T13:24:34;16.63;;;2.60;;
179;SDS011;78;48.788;9.010;2022-11-20T13:29:29;16.90;;;2.60;;
179;SDS011;78;48.788;9.010;2022-11-20T13:32:29;17.67;;;3.00;;
179;SDS011;78;48.788;9.010;2022-11-20T13:34:58;16.17;;;2.50;;
179;SDS011;78;48.788;9.010;2022-11-20T13:42:37;14.77;;;2.70;;
179;SDS011;78;48.788;9.010;2022-11-20T13:45:08;15.73;;;3.03;;
179;SDS011;78;48.788;9.010;2022-11-20T13:47:35;14.80;;;2.50;;
179;SDS011;78;48.788;9.010;2022-11-20T13:50:02;21.33;;;2.77;;
179;SDS011;78;48.788;9.010;2022-11-20T14:00:16;19.90;;;3.10;;
179;SDS011;78;48.788;9.010;2022-11-20T14:02:44;14.40;;;2.40;;
179;SDS011;78;48.788;9.010;2022-11-20T14:05:20;15.50;;;2.50;;
179;SDS011;78;48.788;9.010;2022-11-20T14:07:47;16.63;;;2.70;;
179;SDS011;78;48.788;9.010;2022-11-20T14:12:48;15.17;;;2.60;;
179;SDS011;78;48.788;9.010;2022-11-20T14:15:25;17.37;;;2.80;;
179;SDS011;78;48.788;9.010;2022-11-20T14:17:52;15.67;;;2.90;;
179;SDS011;78;48.788;9.010;2022-11-20T14:20:18;15.97;;;2.93;;
179;SDS011;78;48.788;9.010;2022-11-20T14:22:51;16.27;;;2.90;;
179;SDS011;78;48.788;9.010;2022-11-20T14:27:44;15.97;;;2.80;;
179;SDS011;78;48.788;9.010;2022-11-20T14:30:14;15.87;;;3.23;;
179;SDS011;78;48.788;9.010;2022-11-20T14:32:40;17.20;;;2.93;;
179;SDS011;78;48.788;9.010;2022-11-20T14:35:07;17.10;;;3.10;;
179;SDS011;78;48.788;9.010;2022-11-20T14:37:36;17.30;;;3.10;;
179;SDS011;78;48.788;9.010;2022-11-20T14:40:02;15.10;;;2.90;;
179;SDS011;78;48.788;9.010;2022-11-20T14:42:28;16.20;;;3.30;;
179;SDS011;78;48.788;9.010;2022-11-20T14:44:56;17.07;;;3.10;;
179;SDS011;78;48.788;9.010;2022-11-20T14:47:26;17.00;;;3.20;;
179;SDS011;78;48.788;9.010;2022-11-20T14:49:53;15.67;;;3.27;;
179;SDS011;78;48.788;9.010;2022-11-20T14:52:21;16.40;;;3.33;;
179;SDS011;78;48.788;9.010;2022-11-20T14:54:49;16.73;;;3.20;;
179;SDS011;78;48.788;9.010;2022-11-20T14:57:23;17.17;;;3.20;;
179;SDS011;78;48.788;9.010;2022-11-20T14:59:49;28.83;;;3.53;;
179;SDS011;78;48.788;9.010;2022-11-20T15:02:15;16.40;;;3.27;;
179;SDS011;78;48.788;9.010;2022-11-20T15:04:48;18.90;;;3.50;;
179;SDS011;78;48.788;9.010;2022-11-20T15:07:28;15.60;;;3.00;;
179;SDS011;78;48.788;9.010;2022-11-20T15:10:11;17.03;;;3.50;;
179;SDS011;78;48.788;9.010;2022-11-20T15:12:38;17.67;;;3.43;;
179;SDS011;78;48.788;9.010;2022-11-20T15:15:05;16.83;;;3.43;;
179;SDS011;78;48.788;9.010;2022-11-20T15:17:32;17.10;;;3.47;;
179;SDS011;78;48.788;9.010;2022-11-20T15:20:01;16.23;;;3.20;;
179;SDS011;78;48.788;9.010;2022-11-20T15:22:27;14.67;;;2.70;;
179;SDS011;78;48.788;9.010;2022-11-20T15:24:53;16.87;;;2.90;;
179;SDS011;78;48.788;9.010;2022-11-20T15:27:21;19.33;;;3.10;;
179;SDS011;78;48.788;9.010;2022-11-20T15:29:47;19.63;;;3.37;;
179;SDS011;78;48.788;9.010;2022-11-20T15:32:12;22.87;;;3.40;;
179;SDS011;78;48.788;9.010;2022-11-20T15:34:39;16.27;;;3.40;;
179;SDS011;78;48.788;9.010;2022-11-20T15:37:05;18.80;;;3.40;;
179;SDS011;78;48.788;9.010;2022-11-20T15:39:30;20.90;;;3.77;;
179;SDS011;78;48.788;9.010;2022-11-20T15:41:56;16.17;;;3.63;;
179;SDS011;78;48.788;9.010;2022-11-20T15:44:22;20.50;;;4.27;;
179;SDS011;78;48.788;9.010;2022-11-20T15:46:48;17.70;;;3.63;;
179;SDS011;78;48.788;9.010;2022-11-20T15:49:15;16.73;;;3.60;;
179;SDS011;78;48.788;9.010;2022-11-20T15:51:45;15.20;;;3.10;;
179;SDS011;78;48.788;9.010;2022-11-20T15:54:16;16.87;;;3.77;;
179;SDS011;78;48.788;9.010;2022-11-20T15:56:44;16.10;;;3.10;;
179;SDS011;78;48.788;9.010;2022-11-20T15:59:10;16.00;;;3.47;;
179;SDS011;78;48.788;9.010;2022-11-20T16:01:37;17.07;;;3.23;;
179;SDS011;78;48.788;9.010;2022-11-20T16:04:04;17.60;;;3.50;;
179;SDS011;78;48.788;9.010;2022-11-20T16:06:30;17.80;;;3.30;;
179;SDS011;78;48.788;9.010;2022-11-20T16:08:56;18.43;;;3.90;;
179;SDS011;78;48.788;9.010;2022-11-20T16:11:22;16.57;;;3.50;;
179;SDS011;78;48.788;9.010;2022-11-20T16:13:48;20.40;;;4.70;;
179;SDS011;78;48.788;9.010;2022-11-20T16:16:35;17.60;;;3.73;;
179;SDS011;78;48.788;9.010;2022-11-20T16:19:01;16.80;;;3.60;;
179;SDS011;78;48.788;9.010;2022-11-20T16:21:27;19.73;;;4.40;;
179;SDS011;78;48.788;9.010;2022-11-20T16:23:59;17.97;;;4.50;;
179;SDS011;78;48.788;9.010;2022-11-20T16:26:25;17.93;;;3.70;;
179;SDS011;78;48.788;9.010;2022-11-20T16:28:51;19.93;;;4.33;;
179;SDS011;78;48.788;9.010;2022-11-20T16:31:17;19.43;;;4.47;;
179;SDS011;78;48.788;9.010;2022-11-20T16:33:50;20.13;;;4.20;;
179;SDS011;78;48.788;9.010;2022-11-20T16:36:17;18.80;;;4.50;;
179;SDS011;78;48.788;9.010;2022-11-20T16:38:43;19.63;;;4.37;;
179;SDS011;78;48.788;9.010;2022-11-20T16:41:09;18.30;;;4.87;;
179;SDS011;78;48.788;9.010;2022-11-20T16:46:11;17.90;;;4.00;;
179;SDS011;78;48.788;9.010;2022-11-20T16:48:37;18.37;;;4.50;;
179;SDS011;78;48.788;9.010;2022-11-20T16:51:03;18.83;;;4.70;;
179;SDS011;78;48.788;9.010;2022-11-20T16:53:29;20.33;;;4.70;;
179;SDS011;78;48.788;9.010;2022-11-20T16:56:07;18.10;;;4.70;;
179;SDS011;78;48.788;9.010;2022-11-20T16:58:33;17.67;;;4.67;;
179;SDS011;78;48.788;9.010;2022-11-20T17:01:04;17.83;;;4.47;;
179;SDS011;78;48.788;9.010;2022-11-20T17:03:30;24.27;;;5.67;;
179;SDS011;78;48.788;9.010;2022-11-20T17:05:56;20.80;;;5.70;;
179;SDS011;78;48.788;9.010;2022-11-20T17:08:22;20.43;;;5.50;;
179;SDS011;78;48.788;9.010;2022-11-20T17:10:48;22.23;;;5.10;;
179;SDS011;78;48.788;9.010;2022-11-20T17:13:14;26.83;;;8.40;;
179;SDS011;78;48.788;9.010;2022-11-20T17:15:40;19.30;;;5.27;;
179;SDS011;78;48.788;9.010;2022-11-20T17:18:06;25.67;;;5.50;;
179;SDS011;78;48.788;9.010;2022-11-20T17:20:32;19.30;;;5.00;;
179;SDS011;78;48.788;9.010;2022-11-20T17:22:59;18.13;;;4.60;;
179;SDS011;78;48.788;9.010;2022-11-20T17:25:25;20.00;;;5.07;;
179;SDS011;78;48.788;9.010;2022-11-20T17:27:51;19.10;;;4.90;;
179;SDS011;78;48.788;9.010;2022-11-20T17:30:17;19.70;;;4.77;;
179;SDS011;78;48.788;9.010;2022-11-20T17:32:43;17.90;;;4.20;;
179;SDS011;78;48.788;9.010;2022-11-20T17:35:10;18.90;;;4.83;;
179;SDS011;78;48.788;9.010;2022-11-20T17:37:36;18.63;;;4.27;;
179;SDS011;78;48.788;9.010;2022-11-20T17:40:02;17.20;;;3.90;;